createdAt,value
2023-07-16T00:00:27.931Z,100.00
2023-07-16T00:02:55.624Z,100.00
2023-07-16T00:05:22.923Z,100.00
2023-07-16T00:07:49.982Z,100.00
2023-07-16T00:10:17.145Z,100.00
2023-07-16T00:12:44.047Z,100.00
2023-07-16T00:15:11.060Z,100.00
2023-07-16T00:17:38.024Z,100.00
2023-07-16T00:20:06.027Z,100.00
2023-07-16T00:22:32.982Z,100.00
2023-07-16T00:24:59.807Z,100.00
2023-07-16T00:27:26.652Z,100.00
2023-07-16T00:29:53.622Z,100.00
2023-07-16T00:32:20.487Z,100.00
2023-07-16T00:34:47.362Z,100.00
2023-07-16T00:37:14.263Z,100.00
2023-07-16T00:39:44.142Z,100.00
2023-07-16T00:42:11.196Z,100.00
2023-07-16T00:44:38.087Z,100.00
2023-07-16T00:47:05.212Z,100.00
2023-07-16T00:49:33.361Z,100.00
2023-07-16T00:52:00.529Z,100.00
2023-07-16T00:54:27.966Z,100.00
2023-07-16T00:56:54.868Z,100.00
2023-07-16T00:59:21.749Z,100.00
2023-07-16T01:01:48.748Z,100.00
2023-07-16T01:04:15.747Z,100.00
2023-07-16T01:06:44.677Z,100.00
2023-07-16T01:09:18.526Z,100.00
2023-07-16T01:11:46.179Z,100.00
2023-07-16T01:14:17.628Z,100.00
2023-07-16T01:16:44.634Z,100.00
2023-07-16T01:19:11.768Z,100.00
2023-07-16T01:21:45.543Z,100.00
2023-07-16T01:24:12.678Z,100.00
2023-07-16T01:27:03.019Z,100.00
2023-07-16T01:29:32.885Z,100.00
2023-07-16T01:32:04.946Z,100.00
2023-07-16T01:34:34.682Z,100.00
2023-07-16T01:37:02.540Z,100.00
2023-07-16T01:39:29.654Z,100.00
2023-07-16T01:41:56.512Z,100.00
2023-07-16T01:44:23.679Z,100.00
2023-07-16T01:47:02.486Z,100.00
2023-07-16T01:49:29.335Z,100.00
2023-07-16T01:51:56.236Z,100.00
2023-07-16T01:54:23.095Z,100.00
2023-07-16T01:56:51.266Z,100.00
2023-07-16T01:59:18.190Z,100.00
2023-07-16T02:01:45.107Z,100.00
2023-07-16T02:04:12.017Z,100.00
2023-07-16T02:06:38.832Z,100.00
2023-07-16T02:09:05.735Z,100.00
2023-07-16T02:11:32.531Z,100.00
2023-07-16T02:13:59.329Z,100.00
2023-07-16T02:16:26.847Z,100.00
2023-07-16T02:18:54.985Z,100.00
2023-07-16T02:21:21.807Z,100.00
2023-07-16T02:23:49.000Z,100.00
2023-07-16T02:26:15.989Z,100.00
2023-07-16T02:28:43.110Z,100.00
2023-07-16T02:31:09.993Z,100.00
2023-07-16T02:33:36.910Z,100.00
2023-07-16T02:36:04.069Z,100.00
2023-07-16T02:38:30.917Z,100.00
2023-07-16T02:40:57.719Z,100.00
2023-07-16T02:43:25.541Z,100.00
2023-07-16T02:45:52.431Z,100.00
2023-07-16T02:48:19.307Z,100.00
2023-07-16T02:50:46.116Z,100.00
2023-07-16T02:53:13.030Z,100.00
2023-07-16T02:55:39.902Z,100.00
2023-07-16T02:58:06.810Z,100.00
2023-07-16T03:00:34.609Z,100.00
2023-07-16T03:03:01.792Z,100.00
2023-07-16T03:05:29.084Z,100.00
2023-07-16T03:07:58.039Z,100.00
2023-07-16T03:10:27.965Z,100.00
2023-07-16T03:12:55.184Z,100.00
2023-07-16T03:15:22.592Z,100.00
2023-07-16T03:17:49.529Z,100.00
2023-07-16T03:20:16.429Z,100.00
2023-07-16T03:22:43.505Z,100.00
2023-07-16T03:25:10.636Z,100.00
2023-07-16T03:27:37.586Z,100.00
2023-07-16T03:30:05.555Z,100.00
2023-07-16T03:32:49.908Z,100.00
2023-07-16T03:35:20.204Z,100.00
2023-07-16T03:37:47.104Z,100.00
2023-07-16T03:40:18.168Z,100.00
2023-07-16T03:42:47.204Z,100.00
2023-07-16T03:45:15.260Z,100.00
2023-07-16T03:47:42.403Z,100.00
2023-07-16T03:50:09.653Z,100.00
2023-07-16T03:52:36.520Z,100.00
2023-07-16T03:55:03.753Z,100.00
2023-07-16T03:57:31.036Z,100.00
2023-07-16T03:59:57.970Z,100.00
2023-07-16T04:02:25.723Z,100.00
2023-07-16T04:04:52.757Z,100.00
2023-07-16T04:07:19.770Z,100.00
2023-07-16T04:09:46.658Z,100.00
2023-07-16T04:12:13.560Z,100.00
2023-07-16T04:14:40.391Z,100.00
2023-07-16T04:17:07.292Z,100.00
2023-07-16T04:19:34.115Z,100.00
2023-07-16T04:22:01.177Z,100.00
2023-07-16T04:24:30.713Z,100.00
2023-07-16T04:26:57.570Z,100.00
2023-07-16T04:29:24.478Z,100.00
2023-07-16T04:31:51.701Z,100.00
2023-07-16T04:34:18.517Z,98.33
2023-07-16T04:36:45.724Z,94.34
2023-07-16T04:39:12.744Z,91.66
2023-07-16T04:41:39.792Z,85.35
2023-07-16T04:44:06.878Z,83.26
2023-07-16T04:46:33.816Z,80.25
2023-07-16T04:49:00.976Z,85.83
2023-07-16T04:51:27.895Z,89.47
2023-07-16T04:53:54.702Z,80.02
2023-07-16T04:56:21.579Z,78.55
2023-07-16T04:58:48.359Z,77.71
2023-07-16T05:01:15.336Z,78.92
2023-07-16T05:03:42.273Z,76.66
2023-07-16T05:06:09.170Z,76.83
2023-07-16T05:08:35.952Z,80.51
2023-07-16T05:11:03.038Z,76.84
2023-07-16T05:13:29.864Z,72.86
2023-07-16T05:15:56.949Z,76.99
2023-07-16T05:18:23.965Z,74.36
2023-07-16T05:20:50.899Z,79.78
2023-07-16T05:23:17.818Z,73.52
2023-07-16T05:25:50.177Z,70.20
2023-07-16T05:28:17.690Z,66.23
2023-07-16T05:30:44.593Z,63.12
2023-07-16T05:33:12.113Z,66.09
2023-07-16T05:35:40.366Z,70.35
2023-07-16T05:38:07.404Z,76.65
2023-07-16T05:40:34.367Z,83.56
2023-07-16T05:43:01.250Z,80.83
2023-07-16T05:45:28.044Z,84.86
2023-07-16T05:47:54.988Z,88.29
2023-07-16T05:50:21.881Z,90.46
2023-07-16T05:52:50.050Z,84.74
2023-07-16T05:55:16.943Z,78.72
2023-07-16T05:57:43.857Z,85.59
2023-07-16T06:00:11.665Z,89.71
2023-07-16T06:02:38.701Z,86.40
2023-07-16T06:05:05.967Z,87.06
2023-07-16T06:07:33.029Z,91.05
2023-07-16T06:10:00.203Z,83.79
2023-07-16T06:12:27.087Z,83.21
2023-07-16T06:14:54.293Z,80.50
2023-07-16T06:17:21.365Z,85.70
2023-07-16T06:19:51.399Z,92.28
2023-07-16T06:22:18.333Z,100.00
2023-07-16T06:24:45.201Z,100.00
2023-07-16T06:27:12.149Z,100.00
2023-07-16T06:29:39.010Z,100.00
2023-07-16T06:32:06.290Z,100.00
2023-07-16T06:34:33.184Z,100.00
2023-07-16T06:37:00.103Z,100.00
2023-07-16T06:39:26.973Z,100.00
2023-07-16T06:41:53.840Z,100.00
2023-07-16T06:44:23.085Z,100.00
2023-07-16T06:46:50.019Z,100.00
2023-07-16T06:49:16.844Z,100.00
2023-07-16T06:51:43.722Z,100.00
2023-07-16T06:54:10.680Z,100.00
2023-07-16T06:56:37.669Z,100.00
2023-07-16T06:59:04.532Z,100.00
2023-07-16T07:01:31.586Z,100.00
2023-07-16T07:03:58.558Z,100.00
2023-07-16T07:06:26.009Z,100.00
2023-07-16T07:08:53.321Z,100.00
2023-07-16T07:11:20.244Z,100.00
2023-07-16T07:13:47.209Z,100.00
2023-07-16T07:16:14.571Z,100.00
2023-07-16T07:18:41.561Z,100.00
2023-07-16T07:21:08.576Z,96.49
2023-07-16T07:23:35.426Z,96.87
2023-07-16T07:26:02.336Z,97.31
2023-07-16T07:28:29.589Z,97.39
2023-07-16T07:30:56.547Z,96.48
2023-07-16T07:33:23.442Z,97.96
2023-07-16T07:35:50.372Z,97.94
2023-07-16T07:38:17.266Z,97.47
2023-07-16T07:40:45.300Z,94.11
2023-07-16T07:43:12.198Z,93.84
2023-07-16T07:45:39.099Z,91.10
2023-07-16T07:48:06.746Z,87.75
2023-07-16T07:50:33.703Z,90.55
2023-07-16T07:53:00.572Z,87.42
2023-07-16T07:55:27.556Z,85.18
2023-07-16T07:57:54.408Z,85.00
2023-07-16T08:00:27.477Z,87.21
2023-07-16T08:02:54.912Z,85.51
2023-07-16T08:05:22.010Z,80.48
2023-07-16T08:07:48.868Z,79.30
2023-07-16T08:10:15.688Z,79.42
2023-07-16T08:12:42.665Z,81.10
2023-07-16T08:15:15.305Z,80.65
2023-07-16T08:17:46.014Z,80.55
2023-07-16T08:20:13.380Z,79.21
2023-07-16T08:22:40.541Z,80.55
2023-07-16T08:25:08.225Z,82.01
2023-07-16T08:27:35.318Z,81.45
2023-07-16T08:30:02.272Z,84.13
2023-07-16T08:32:29.193Z,81.11
2023-07-16T08:34:56.206Z,84.47
2023-07-16T08:37:23.103Z,84.16
2023-07-16T08:39:52.774Z,84.00
2023-07-16T08:42:19.972Z,80.85
2023-07-16T08:44:47.030Z,82.75
2023-07-16T08:47:14.042Z,83.22
2023-07-16T08:49:42.171Z,85.46
2023-07-16T08:52:09.312Z,84.64
2023-07-16T08:54:36.142Z,86.15
2023-07-16T08:57:03.117Z,83.47
2023-07-16T08:59:30.278Z,83.19
2023-07-16T09:01:57.210Z,82.78
2023-07-16T09:04:24.049Z,82.07
2023-07-16T09:06:50.910Z,80.98
2023-07-16T09:09:23.983Z,83.37
2023-07-16T09:11:50.944Z,83.95
2023-07-16T09:14:18.795Z,81.42
2023-07-16T09:16:49.145Z,81.42
2023-07-16T09:19:18.912Z,83.12
2023-07-16T09:21:49.020Z,83.45
2023-07-16T09:24:17.959Z,84.86
2023-07-16T09:26:56.868Z,84.25
2023-07-16T09:29:26.340Z,84.26
2023-07-16T09:32:06.665Z,82.84
2023-07-16T09:34:33.646Z,82.58
2023-07-16T09:37:01.463Z,84.21
2023-07-16T09:39:28.862Z,82.55
2023-07-16T09:41:58.601Z,82.41
2023-07-16T09:44:25.641Z,82.32
2023-07-16T09:46:52.599Z,83.79
2023-07-16T09:49:20.600Z,83.21
2023-07-16T09:51:49.396Z,83.48
2023-07-16T09:54:16.584Z,82.53
2023-07-16T09:56:58.263Z,83.84
2023-07-16T09:59:26.481Z,75.64
2023-07-16T10:01:54.972Z,73.91
2023-07-16T10:04:23.169Z,78.25
2023-07-16T10:06:57.343Z,73.74
2023-07-16T10:09:36.928Z,73.70
2023-07-16T10:12:17.569Z,71.78
2023-07-16T10:14:51.485Z,70.66
2023-07-16T10:17:19.809Z,71.91
2023-07-16T10:20:04.810Z,65.73
2023-07-16T10:22:37.289Z,67.20
2023-07-16T10:25:24.528Z,74.94
2023-07-16T10:27:52.258Z,65.85
2023-07-16T10:30:19.550Z,64.31
2023-07-16T10:32:47.025Z,67.10
2023-07-16T10:35:14.376Z,51.04
2023-07-16T10:37:41.973Z,52.84
2023-07-16T10:40:12.469Z,50.23
2023-07-16T10:42:41.484Z,45.22
2023-07-16T10:45:08.566Z,45.27
2023-07-16T10:47:37.375Z,47.34
2023-07-16T10:50:12.971Z,48.44
2023-07-16T10:52:40.757Z,48.88
2023-07-16T10:55:07.929Z,48.69
2023-07-16T10:57:34.873Z,47.87
2023-07-16T11:00:01.800Z,47.84
2023-07-16T11:02:29.195Z,48.47
2023-07-16T11:04:56.276Z,51.34
2023-07-16T11:07:23.488Z,50.70
2023-07-16T11:09:54.549Z,49.73
2023-07-16T11:12:25.166Z,49.13
2023-07-16T11:14:53.174Z,50.70
2023-07-16T11:17:20.302Z,50.96
2023-07-16T11:19:48.240Z,50.14
2023-07-16T11:22:15.914Z,49.91
2023-07-16T11:24:45.645Z,49.31
2023-07-16T11:27:17.081Z,51.21
2023-07-16T11:29:48.016Z,53.12
2023-07-16T11:32:15.961Z,54.70
2023-07-16T11:35:01.994Z,55.24
2023-07-16T11:37:29.798Z,50.70
2023-07-16T11:40:04.981Z,52.32
2023-07-16T11:42:33.191Z,52.09
2023-07-16T11:45:00.700Z,55.43
2023-07-16T11:47:28.543Z,54.67
2023-07-16T11:49:55.754Z,49.98
2023-07-16T11:52:24.351Z,56.19
2023-07-16T11:54:51.335Z,57.03
2023-07-16T11:57:18.293Z,55.21
2023-07-16T11:59:45.467Z,55.71
2023-07-16T12:02:12.502Z,56.78
2023-07-16T12:04:39.423Z,60.74
2023-07-16T12:07:06.305Z,59.47
2023-07-16T12:09:33.338Z,59.04
2023-07-16T12:12:00.861Z,59.20
2023-07-16T12:14:27.966Z,53.47
2023-07-16T12:16:55.099Z,57.11
2023-07-16T12:19:21.988Z,58.90
2023-07-16T12:21:48.926Z,63.20
2023-07-16T12:24:15.839Z,64.56
2023-07-16T12:26:42.784Z,63.80
2023-07-16T12:29:09.672Z,64.34
2023-07-16T12:31:37.002Z,64.08
2023-07-16T12:34:03.911Z,66.25
2023-07-16T12:36:31.028Z,65.00
2023-07-16T12:38:57.948Z,65.96
2023-07-16T12:41:24.863Z,62.76
2023-07-16T12:43:51.720Z,61.89
2023-07-16T12:46:18.938Z,56.19
2023-07-16T12:48:46.051Z,56.13
2023-07-16T12:51:12.899Z,53.62
2023-07-16T12:53:40.020Z,57.21
2023-07-16T12:56:06.991Z,55.78
2023-07-16T12:58:33.802Z,56.87
2023-07-16T13:01:00.801Z,56.32
2023-07-16T13:03:27.764Z,56.23
2023-07-16T13:05:54.689Z,54.50
2023-07-16T13:08:21.795Z,56.47
2023-07-16T13:10:48.722Z,55.50
2023-07-16T13:13:15.549Z,50.29
2023-07-16T13:15:42.515Z,53.92
2023-07-16T13:18:10.864Z,55.97
2023-07-16T13:20:38.041Z,55.43
2023-07-16T13:23:05.203Z,56.43
2023-07-16T13:25:32.217Z,57.04
2023-07-16T13:27:59.056Z,57.39
2023-07-16T13:30:27.170Z,56.78
2023-07-16T13:32:56.449Z,56.65
2023-07-16T13:35:26.520Z,59.01
2023-07-16T13:37:53.439Z,57.78
2023-07-16T13:40:22.006Z,57.68
2023-07-16T13:42:49.442Z,55.76
2023-07-16T13:45:16.332Z,55.19
2023-07-16T13:47:43.522Z,58.87
2023-07-16T13:50:10.771Z,56.25
2023-07-16T13:52:37.718Z,55.24
2023-07-16T13:55:05.332Z,57.35
2023-07-16T13:57:32.271Z,50.54
2023-07-16T13:59:59.048Z,51.28
2023-07-16T14:02:26.018Z,52.49
2023-07-16T14:04:52.986Z,49.51
2023-07-16T14:07:19.906Z,50.19
2023-07-16T14:09:46.791Z,52.15
2023-07-16T14:12:13.876Z,55.06
2023-07-16T14:14:40.792Z,56.06
2023-07-16T14:17:07.703Z,60.00
2023-07-16T14:19:34.772Z,60.36
2023-07-16T14:22:01.660Z,59.14
2023-07-16T14:24:28.558Z,54.98
2023-07-16T14:26:55.438Z,55.05
2023-07-16T14:29:22.311Z,53.37
2023-07-16T14:31:49.210Z,54.34
2023-07-16T14:34:16.131Z,55.66
2023-07-16T14:36:43.497Z,57.65
2023-07-16T14:39:10.329Z,53.62
2023-07-16T14:41:37.225Z,52.68
2023-07-16T14:44:04.534Z,53.30
2023-07-16T14:46:31.635Z,54.30
2023-07-16T14:48:59.666Z,55.56
2023-07-16T14:51:26.733Z,54.83
2023-07-16T14:53:56.459Z,58.89
2023-07-16T14:56:23.448Z,58.59
2023-07-16T14:58:50.350Z,54.72
2023-07-16T15:01:17.212Z,58.60
2023-07-16T15:03:44.235Z,55.33
2023-07-16T15:06:11.266Z,52.09
2023-07-16T15:08:38.126Z,50.32
2023-07-16T15:11:05.459Z,48.52
2023-07-16T15:13:32.343Z,49.76
2023-07-16T15:15:59.506Z,50.25
2023-07-16T15:18:27.190Z,48.90
2023-07-16T15:21:01.304Z,50.56
2023-07-16T15:23:28.791Z,52.89
2023-07-16T15:25:56.464Z,50.38
2023-07-16T15:28:23.686Z,48.74
2023-07-16T15:30:50.647Z,45.16
2023-07-16T15:33:17.679Z,40.28
2023-07-16T15:35:44.546Z,38.58
2023-07-16T15:38:11.532Z,37.59
2023-07-16T15:40:38.435Z,38.64
2023-07-16T15:43:05.390Z,38.31
2023-07-16T15:45:32.272Z,36.97
2023-07-16T15:47:59.823Z,37.77
2023-07-16T15:50:27.988Z,37.76
2023-07-16T15:52:56.529Z,39.26
2023-07-16T15:55:23.946Z,38.63
2023-07-16T15:57:51.246Z,35.95
2023-07-16T16:00:18.404Z,33.35
2023-07-16T16:02:45.686Z,35.29
2023-07-16T16:05:12.779Z,35.66
2023-07-16T16:07:47.026Z,35.02
2023-07-16T16:10:14.685Z,34.65
2023-07-16T16:12:42.540Z,32.86
2023-07-16T16:15:09.574Z,31.57
2023-07-16T16:17:36.717Z,31.32
2023-07-16T16:20:06.538Z,31.55
2023-07-16T16:22:33.887Z,32.78
2023-07-16T16:25:03.064Z,32.96
2023-07-16T16:27:29.945Z,33.00
2023-07-16T16:29:56.819Z,31.94
2023-07-16T16:32:23.650Z,30.96
2023-07-16T16:34:50.551Z,29.86
2023-07-16T16:37:17.497Z,31.00
2023-07-16T16:39:44.443Z,31.67
2023-07-16T16:42:11.385Z,31.99
2023-07-16T16:44:38.228Z,32.85
2023-07-16T16:47:05.304Z,32.86
2023-07-16T16:49:32.360Z,33.08
2023-07-16T16:51:59.230Z,33.45
2023-07-16T16:54:26.008Z,32.07
2023-07-16T16:56:52.891Z,31.67
2023-07-16T16:59:19.912Z,32.72
2023-07-16T17:01:46.858Z,34.00
2023-07-16T17:04:13.961Z,32.16
2023-07-16T17:06:43.041Z,32.61
2023-07-16T17:09:10.465Z,34.64
2023-07-16T17:11:37.502Z,33.15
2023-07-16T17:14:05.078Z,33.59
2023-07-16T17:16:32.000Z,34.11
2023-07-16T17:18:58.839Z,34.85
2023-07-16T17:21:27.799Z,37.26
2023-07-16T17:23:54.780Z,39.33
2023-07-16T17:26:21.693Z,36.60
2023-07-16T17:28:49.574Z,37.11
2023-07-16T17:31:16.639Z,39.65
2023-07-16T17:33:43.890Z,39.60
2023-07-16T17:36:10.919Z,40.48
2023-07-16T17:38:37.849Z,41.58
2023-07-16T17:41:06.572Z,44.21
2023-07-16T17:43:33.501Z,44.33
2023-07-16T17:46:03.515Z,42.89
2023-07-16T17:48:33.443Z,44.67
2023-07-16T17:51:00.907Z,45.58
2023-07-16T17:53:27.749Z,49.89
2023-07-16T17:55:54.600Z,53.24
2023-07-16T17:58:22.421Z,56.20
2023-07-16T18:00:49.413Z,60.50
2023-07-16T18:03:16.405Z,64.75
2023-07-16T18:05:43.410Z,69.66
2023-07-16T18:08:10.260Z,75.64
2023-07-16T18:10:37.187Z,79.61
2023-07-16T18:13:04.694Z,81.33
2023-07-16T18:15:31.554Z,83.22
2023-07-16T18:17:58.414Z,84.80
2023-07-16T18:20:26.991Z,84.55
2023-07-16T18:22:54.265Z,85.41
2023-07-16T18:25:21.578Z,85.64
2023-07-16T18:27:48.800Z,88.04
2023-07-16T18:30:15.869Z,90.44
2023-07-16T18:32:42.739Z,91.84
2023-07-16T18:35:10.139Z,92.40
2023-07-16T18:37:37.085Z,93.29
2023-07-16T18:40:05.076Z,92.09
2023-07-16T18:42:32.900Z,93.89
2023-07-16T18:45:07.282Z,94.76
2023-07-16T18:47:34.598Z,96.50
2023-07-16T18:50:01.446Z,94.75
2023-07-16T18:52:28.486Z,95.54
2023-07-16T18:54:56.688Z,97.01
2023-07-16T18:57:25.187Z,97.88
2023-07-16T18:59:53.259Z,99.48
2023-07-16T19:02:20.145Z,99.99
2023-07-16T19:04:47.028Z,99.76
2023-07-16T19:07:13.929Z,97.90
2023-07-16T19:09:41.419Z,97.38
2023-07-16T19:12:08.501Z,100.00
2023-07-16T19:14:35.469Z,100.00
2023-07-16T19:17:04.452Z,100.00
2023-07-16T19:19:31.487Z,100.00
2023-07-16T19:21:58.318Z,100.00
2023-07-16T19:24:25.154Z,100.00
2023-07-16T19:26:52.005Z,100.00
2023-07-16T19:29:18.825Z,100.00
2023-07-16T19:31:45.849Z,100.00
2023-07-16T19:34:12.726Z,100.00
2023-07-16T19:36:39.611Z,100.00
2023-07-16T19:39:06.520Z,100.00
2023-07-16T19:41:33.322Z,100.00
2023-07-16T19:44:01.616Z,100.00
2023-07-16T19:46:30.734Z,100.00
2023-07-16T19:48:57.605Z,100.00
2023-07-16T19:51:24.483Z,100.00
2023-07-16T19:53:51.327Z,100.00
2023-07-16T19:56:18.434Z,100.00
2023-07-16T19:58:45.377Z,100.00
2023-07-16T20:01:12.366Z,100.00
2023-07-16T20:03:39.418Z,100.00
2023-07-16T20:06:09.355Z,100.00
2023-07-16T20:08:36.304Z,100.00
2023-07-16T20:11:03.089Z,100.00
2023-07-16T20:13:29.917Z,100.00
2023-07-16T20:15:56.754Z,100.00
2023-07-16T20:18:23.796Z,100.00
2023-07-16T20:20:50.607Z,100.00
2023-07-16T20:23:17.470Z,100.00
2023-07-16T20:25:44.787Z,100.00
2023-07-16T20:28:13.937Z,100.00
2023-07-16T20:30:43.146Z,100.00
2023-07-16T20:33:10.128Z,100.00
2023-07-16T20:35:36.971Z,100.00
2023-07-16T20:38:04.725Z,100.00
2023-07-16T20:40:34.667Z,100.00
2023-07-16T20:43:01.651Z,100.00
2023-07-16T20:45:31.586Z,100.00
2023-07-16T20:47:59.975Z,100.00
2023-07-16T20:50:28.085Z,100.00
2023-07-16T20:52:56.045Z,100.00
2023-07-16T20:55:23.282Z,100.00
2023-07-16T20:57:53.643Z,100.00
2023-07-16T21:00:25.491Z,100.00
2023-07-16T21:02:53.447Z,100.00
2023-07-16T21:05:20.468Z,100.00
2023-07-16T21:07:49.641Z,100.00
2023-07-16T21:10:16.822Z,100.00
2023-07-16T21:12:46.389Z,100.00
2023-07-16T21:15:13.817Z,100.00
2023-07-16T21:17:40.894Z,100.00
2023-07-16T21:20:10.695Z,100.00
2023-07-16T21:22:39.072Z,100.00
2023-07-16T21:25:06.434Z,100.00
2023-07-16T21:27:34.242Z,100.00
2023-07-16T21:30:03.319Z,100.00
2023-07-16T21:32:30.777Z,100.00
2023-07-16T21:34:57.739Z,100.00
2023-07-16T21:37:24.593Z,100.00
2023-07-16T21:39:51.404Z,100.00
2023-07-16T21:42:18.243Z,100.00
2023-07-16T21:44:45.209Z,100.00
2023-07-16T21:47:12.059Z,100.00
2023-07-16T21:49:38.889Z,100.00
2023-07-16T21:52:06.058Z,100.00
2023-07-16T21:54:36.183Z,100.00
2023-07-16T21:57:03.738Z,100.00
2023-07-16T21:59:30.702Z,100.00
2023-07-16T22:01:57.958Z,100.00
2023-07-16T22:04:24.913Z,100.00
2023-07-16T22:06:52.054Z,100.00
2023-07-16T22:09:19.121Z,100.00
2023-07-16T22:11:45.932Z,100.00
2023-07-16T22:14:12.816Z,100.00
2023-07-16T22:16:39.677Z,100.00
2023-07-16T22:19:25.103Z,100.00
2023-07-16T22:21:55.922Z,100.00
2023-07-16T22:24:22.720Z,100.00
2023-07-16T22:26:49.591Z,100.00
2023-07-16T22:29:16.612Z,100.00
2023-07-16T22:31:43.496Z,100.00
2023-07-16T22:34:10.327Z,100.00
2023-07-16T22:36:37.266Z,100.00
2023-07-16T22:39:04.890Z,100.00
2023-07-16T22:41:31.891Z,100.00
2023-07-16T22:43:58.815Z,100.00
2023-07-16T22:46:25.741Z,100.00
2023-07-16T22:48:54.463Z,100.00
2023-07-16T22:51:21.467Z,100.00
2023-07-16T22:53:48.363Z,100.00
2023-07-16T22:56:15.211Z,100.00
2023-07-16T22:58:42.821Z,100.00
2023-07-16T23:01:12.747Z,100.00
2023-07-16T23:03:40.141Z,100.00
2023-07-16T23:06:07.155Z,100.00
2023-07-16T23:08:34.110Z,100.00
2023-07-16T23:11:01.621Z,100.00
2023-07-16T23:13:31.627Z,100.00
2023-07-16T23:15:58.867Z,100.00
2023-07-16T23:18:25.936Z,100.00
2023-07-16T23:20:54.296Z,100.00
2023-07-16T23:23:21.127Z,100.00
2023-07-16T23:25:48.037Z,100.00
2023-07-16T23:28:14.910Z,100.00
2023-07-16T23:30:41.773Z,100.00
2023-07-16T23:33:08.638Z,100.00
2023-07-16T23:35:35.591Z,100.00
2023-07-16T23:38:03.577Z,100.00
2023-07-16T23:40:30.693Z,100.00
2023-07-16T23:42:57.553Z,100.00
2023-07-16T23:45:24.480Z,100.00
2023-07-16T23:47:51.543Z,100.00
2023-07-16T23:50:18.521Z,100.00
2023-07-16T23:52:45.320Z,100.00
2023-07-16T23:55:12.252Z,100.00
2023-07-16T23:57:39.938Z,100.00
